createdAt,value
2019-04-10T00:00:46.181Z,9.27
2019-04-10T00:03:25.539Z,8.70
2019-04-10T00:05:44.498Z,8.63
2019-04-10T00:08:12.635Z,8.70
2019-04-10T00:10:40.678Z,8.67
2019-04-10T00:13:08.685Z,9.17
2019-04-10T00:15:36.694Z,8.50
2019-04-10T00:18:05.297Z,9.00
2019-04-10T00:20:34.342Z,9.93
2019-04-10T00:23:02.585Z,9.67
2019-04-10T00:25:30.801Z,8.47
2019-04-10T00:27:59.046Z,8.53
2019-04-10T00:30:27.300Z,8.60
2019-04-10T00:32:56.346Z,8.13
2019-04-10T00:35:25.559Z,8.83
2019-04-10T00:37:53.703Z,8.67
2019-04-10T00:40:21.734Z,8.77
2019-04-10T00:42:49.741Z,8.97
2019-04-10T00:45:17.753Z,8.03
2019-04-10T00:47:45.782Z,8.03
2019-04-10T00:50:14.627Z,8.73
2019-04-10T00:52:42.766Z,8.10
2019-04-10T00:55:11.238Z,8.50
2019-04-10T00:57:39.374Z,8.53
2019-04-10T01:00:08.352Z,8.40
2019-04-10T01:02:36.864Z,8.47
2019-04-10T01:05:05.554Z,7.97
2019-04-10T01:07:39.455Z,8.30
2019-04-10T01:10:06.078Z,7.93
2019-04-10T01:12:34.434Z,8.33
2019-04-10T01:15:03.681Z,9.03
2019-04-10T01:17:32.694Z,7.73
2019-04-10T01:20:00.716Z,7.93
2019-04-10T01:22:28.744Z,8.13
2019-04-10T01:24:57.727Z,7.57
2019-04-10T01:27:25.922Z,7.50
2019-04-10T01:29:53.934Z,7.67
2019-04-10T01:32:22.046Z,7.10
2019-04-10T01:34:50.056Z,7.60
2019-04-10T01:37:18.748Z,7.53
2019-04-10T01:39:46.872Z,6.97
2019-04-10T01:42:14.892Z,7.27
2019-04-10T01:44:42.904Z,6.77
2019-04-10T01:47:10.944Z,7.47
2019-04-10T01:49:39.869Z,6.40
2019-04-10T01:52:08.897Z,6.53
2019-04-10T01:54:37.469Z,6.17
2019-04-10T01:57:06.182Z,5.97
2019-04-10T01:59:38.313Z,5.97
2019-04-10T02:02:07.992Z,5.60
2019-04-10T02:04:35.993Z,5.73
2019-04-10T02:07:03.995Z,5.50
2019-04-10T02:09:32.015Z,5.33
2019-04-10T02:12:00.023Z,6.20
2019-04-10T02:14:28.059Z,5.40
2019-04-10T02:16:57.027Z,5.23
2019-04-10T02:19:26.125Z,5.27
2019-04-10T02:21:54.498Z,5.53
2019-04-10T02:24:22.988Z,5.40
2019-04-10T02:26:51.946Z,5.57
2019-04-10T02:29:20.297Z,5.27
2019-04-10T02:31:48.631Z,4.83
2019-04-10T02:34:19.300Z,5.00
2019-04-10T02:36:48.825Z,5.10
2019-04-10T02:39:25.619Z,4.73
2019-04-10T02:41:46.935Z,5.47
2019-04-10T02:44:16.225Z,4.83
2019-04-10T02:46:45.136Z,4.67
2019-04-10T02:49:14.305Z,4.93
2019-04-10T02:51:43.280Z,4.83
2019-04-10T02:54:13.160Z,4.30
2019-04-10T02:56:41.187Z,4.83
2019-04-10T02:59:09.489Z,4.90
2019-04-10T03:01:39.911Z,4.70
2019-04-10T03:04:09.796Z,4.47
2019-04-10T03:06:39.326Z,4.57
2019-04-10T03:09:26.040Z,4.50
2019-04-10T03:11:37.688Z,4.60
2019-04-10T03:14:08.043Z,3.67
2019-04-10T03:16:37.512Z,4.60
2019-04-10T03:19:05.639Z,3.83
2019-04-10T03:21:33.635Z,4.07
2019-04-10T03:24:04.237Z,3.53
2019-04-10T03:26:32.623Z,4.33
2019-04-10T03:29:00.641Z,4.13
2019-04-10T03:31:30.051Z,4.47
2019-04-10T03:34:16.804Z,4.10
2019-04-10T03:36:45.495Z,3.70
2019-04-10T03:39:13.634Z,3.83
2019-04-10T03:41:42.203Z,3.90
2019-04-10T03:44:10.386Z,3.60
2019-04-10T03:46:40.072Z,4.37
2019-04-10T03:49:09.512Z,3.63
2019-04-10T03:51:38.784Z,4.00
2019-04-10T03:54:06.942Z,4.07
2019-04-10T03:56:35.965Z,3.43
2019-04-10T03:59:04.307Z,3.97
2019-04-10T04:01:33.345Z,3.83
2019-04-10T04:04:01.736Z,4.07
2019-04-10T04:06:29.749Z,3.97
2019-04-10T04:09:06.874Z,3.90
2019-04-10T04:11:27.485Z,3.60
2019-04-10T04:13:55.620Z,3.70
2019-04-10T04:16:24.711Z,3.37
2019-04-10T04:18:53.368Z,3.20
2019-04-10T04:21:21.702Z,3.27
2019-04-10T04:23:50.867Z,3.30
2019-04-10T04:26:19.218Z,3.37
2019-04-10T04:28:47.291Z,3.50
2019-04-10T04:31:16.020Z,3.73
2019-04-10T04:33:44.772Z,3.33
2019-04-10T04:36:12.893Z,3.77
2019-04-10T04:38:41.036Z,3.43
2019-04-10T04:41:09.106Z,3.93
2019-04-10T04:43:37.177Z,3.83
2019-04-10T04:46:05.183Z,3.80
2019-04-10T04:48:34.200Z,3.97
2019-04-10T04:51:03.239Z,4.00
2019-04-10T04:53:32.241Z,3.63
2019-04-10T04:56:00.431Z,3.63
2019-04-10T04:58:28.533Z,3.80
2019-04-10T05:00:56.545Z,3.60
2019-04-10T05:03:25.580Z,3.23
2019-04-10T05:05:54.037Z,3.87
2019-04-10T05:08:22.036Z,4.33
2019-04-10T05:10:50.042Z,3.93
2019-04-10T05:13:18.069Z,4.30
2019-04-10T05:15:46.110Z,3.80
2019-04-10T05:18:14.660Z,4.40
2019-04-10T05:20:47.203Z,3.90
2019-04-10T05:23:12.525Z,3.90
2019-04-10T05:25:41.477Z,3.90
2019-04-10T05:28:09.736Z,4.47
2019-04-10T05:30:37.772Z,3.97
2019-04-10T05:33:06.299Z,4.07
2019-04-10T05:35:35.036Z,4.40
2019-04-10T05:38:03.125Z,4.33
2019-04-10T05:40:33.030Z,4.00
2019-04-10T05:43:01.625Z,3.70
2019-04-10T05:45:29.883Z,4.20
2019-04-10T05:47:59.018Z,3.97
2019-04-10T05:50:27.826Z,3.63
2019-04-10T05:52:56.624Z,4.07
2019-04-10T05:55:26.918Z,3.90
2019-04-10T05:57:55.286Z,4.13
2019-04-10T06:00:23.516Z,3.90
2019-04-10T06:02:52.188Z,4.30
2019-04-10T06:05:20.618Z,4.57
2019-04-10T06:07:49.548Z,4.07
2019-04-10T06:10:17.938Z,4.40
2019-04-10T06:12:46.700Z,3.80
2019-04-10T06:15:14.950Z,3.97
2019-04-10T06:17:42.962Z,4.27
2019-04-10T06:20:11.225Z,4.00
2019-04-10T06:22:39.531Z,3.97
2019-04-10T06:25:09.200Z,3.43
2019-04-10T06:27:37.282Z,3.47
2019-04-10T06:30:06.244Z,4.23
2019-04-10T06:32:34.606Z,3.87
2019-04-10T06:35:03.719Z,3.90
2019-04-10T06:37:32.518Z,3.93
2019-04-10T06:40:12.433Z,4.37
2019-04-10T06:42:35.099Z,4.17
2019-04-10T06:45:00.707Z,4.80
2019-04-10T06:47:28.720Z,4.10
2019-04-10T06:49:56.972Z,4.03
2019-04-10T06:52:25.334Z,4.47
2019-04-10T06:54:54.114Z,4.07
2019-04-10T06:57:22.940Z,3.43
2019-04-10T06:59:51.079Z,3.67
2019-04-10T07:02:25.594Z,3.90
2019-04-10T07:04:54.256Z,4.10
2019-04-10T07:07:21.968Z,3.77
2019-04-10T07:09:49.587Z,3.83
2019-04-10T07:12:18.610Z,3.77
2019-04-10T07:14:49.346Z,3.40
2019-04-10T07:17:17.764Z,3.53
2019-04-10T07:19:46.216Z,3.57
2019-04-10T07:22:15.847Z,4.13
2019-04-10T07:24:44.085Z,3.90
2019-04-10T07:27:12.175Z,3.50
2019-04-10T07:29:40.469Z,3.30
2019-04-10T07:32:10.563Z,3.50
2019-04-10T07:34:38.405Z,3.40
2019-04-10T07:37:06.423Z,3.73
2019-04-10T07:39:35.125Z,3.60
2019-04-10T07:42:04.151Z,3.50
2019-04-10T07:44:32.333Z,3.60
2019-04-10T07:47:00.854Z,3.07
2019-04-10T07:49:31.122Z,3.50
2019-04-10T07:51:58.790Z,3.57
2019-04-10T07:54:26.801Z,3.97
2019-04-10T07:56:55.740Z,3.30
2019-04-10T07:59:23.769Z,3.43
2019-04-10T08:01:51.797Z,3.40
2019-04-10T08:04:20.539Z,3.53
2019-04-10T08:06:48.747Z,3.77
2019-04-10T08:09:16.784Z,3.50
2019-04-10T08:11:44.974Z,3.53
2019-04-10T08:14:13.020Z,4.13
2019-04-10T08:16:41.447Z,3.27
2019-04-10T08:19:10.397Z,3.93
2019-04-10T08:21:38.657Z,3.10
2019-04-10T08:24:07.380Z,3.57
2019-04-10T08:26:36.603Z,3.83
2019-04-10T08:29:05.730Z,4.10
2019-04-10T08:31:34.048Z,3.43
2019-04-10T08:34:03.193Z,3.40
2019-04-10T08:36:31.902Z,4.63
2019-04-10T08:39:00.073Z,3.77
2019-04-10T08:41:28.190Z,3.63
2019-04-10T08:43:56.740Z,3.90
2019-04-10T08:46:25.990Z,3.97
2019-04-10T08:48:54.175Z,3.37
2019-04-10T08:51:23.414Z,4.10
2019-04-10T08:53:54.188Z,3.67
2019-04-10T08:56:22.615Z,3.50
2019-04-10T08:58:51.713Z,3.57
2019-04-10T09:01:39.726Z,4.40
2019-04-10T09:04:07.808Z,3.90
2019-04-10T09:06:35.907Z,3.93
2019-04-10T09:09:05.699Z,3.63
2019-04-10T09:11:34.005Z,4.00
2019-04-10T09:14:03.156Z,4.07
2019-04-10T09:16:31.591Z,4.50
2019-04-10T09:18:59.741Z,3.97
2019-04-10T09:21:28.117Z,3.80
2019-04-10T09:23:57.736Z,3.80
2019-04-10T09:26:26.530Z,3.67
2019-04-10T09:28:54.936Z,4.13
2019-04-10T09:31:23.909Z,3.70
2019-04-10T09:33:53.755Z,3.57
2019-04-10T09:36:21.962Z,3.90
2019-04-10T09:38:50.780Z,3.97
2019-04-10T09:41:19.492Z,3.73
2019-04-10T09:43:47.760Z,3.70
2019-04-10T09:46:16.203Z,4.50
2019-04-10T09:48:44.425Z,3.67
2019-04-10T09:51:15.325Z,4.20
2019-04-10T09:56:17.282Z,4.07
2019-04-10T09:58:46.751Z,3.43
2019-04-10T10:01:15.953Z,4.07
2019-04-10T10:03:44.433Z,4.10
2019-04-10T10:06:23.218Z,2.47
2019-04-10T10:08:42.286Z,3.63
2019-04-10T10:11:10.329Z,4.40
2019-04-10T10:13:39.316Z,4.50
2019-04-10T10:16:08.502Z,4.40
2019-04-10T10:18:37.335Z,4.70
2019-04-10T10:21:05.709Z,4.20
2019-04-10T10:23:33.920Z,3.83
2019-04-10T10:26:02.103Z,4.40
2019-04-10T10:28:31.164Z,4.13
2019-04-10T10:30:59.949Z,4.30
2019-04-10T10:33:29.944Z,3.17
2019-04-10T10:35:59.623Z,2.90
2019-04-10T10:38:29.377Z,4.37
2019-04-10T10:40:57.835Z,3.63
2019-04-10T10:43:27.254Z,3.80
2019-04-10T10:45:55.640Z,3.40
2019-04-10T10:48:24.035Z,3.30
2019-04-10T10:50:53.258Z,3.60
2019-04-10T10:53:22.133Z,3.77
2019-04-10T10:55:50.379Z,3.47
2019-04-10T10:58:19.675Z,4.10
2019-04-10T11:00:49.927Z,3.70
2019-04-10T11:03:18.267Z,2.93
2019-04-10T11:05:46.571Z,2.93
2019-04-10T11:08:15.353Z,3.50
2019-04-10T11:10:53.374Z,3.10
2019-04-10T11:13:24.304Z,3.40
2019-04-10T11:15:52.587Z,3.47
2019-04-10T11:18:20.858Z,3.03
2019-04-10T11:20:49.891Z,3.13
2019-04-10T11:23:18.487Z,3.58
2019-04-10T11:25:46.735Z,3.00
2019-04-10T11:28:16.312Z,3.03
2019-04-10T11:30:44.988Z,3.17
2019-04-10T11:33:14.609Z,3.00
2019-04-10T11:35:43.927Z,2.77
2019-04-10T11:38:13.386Z,3.10
2019-04-10T11:40:42.022Z,2.93
2019-04-10T11:43:12.321Z,3.00
2019-04-10T11:45:44.126Z,3.00
2019-04-10T11:48:12.820Z,3.00
2019-04-10T11:50:43.864Z,2.30
2019-04-10T11:53:13.671Z,2.60
2019-04-10T11:58:14.626Z,2.40
2019-04-10T12:00:50.609Z,2.03
2019-04-10T12:03:12.866Z,3.00
2019-04-10T12:05:42.287Z,2.90
2019-04-10T12:08:36.221Z,2.53
2019-04-10T12:13:10.819Z,2.30
2019-04-10T12:15:39.104Z,2.60
2019-04-10T12:18:08.559Z,2.27
2019-04-10T12:20:37.531Z,2.40
2019-04-10T12:23:08.459Z,2.87
2019-04-10T12:25:37.089Z,2.50
2019-04-10T12:28:05.469Z,2.30
2019-04-10T12:30:33.791Z,2.70
2019-04-10T12:33:03.199Z,2.70
2019-04-10T12:35:31.937Z,2.60
2019-04-10T12:38:03.741Z,2.40
2019-04-10T12:40:30.777Z,2.43
2019-04-10T12:42:59.187Z,2.60
2019-04-10T12:45:28.355Z,2.50
2019-04-10T12:47:56.770Z,2.60
2019-04-10T12:50:25.055Z,1.90
2019-04-10T12:52:54.943Z,2.73
2019-04-10T12:55:24.105Z,2.10
2019-04-10T12:58:00.015Z,2.20
2019-04-10T13:00:23.850Z,2.40
2019-04-10T13:02:52.471Z,2.40
2019-04-10T13:05:21.007Z,2.50
2019-04-10T13:07:51.927Z,2.47
2019-04-10T13:10:20.485Z,2.70
2019-04-10T13:12:49.631Z,2.70
2019-04-10T13:15:30.219Z,2.50
2019-04-10T13:17:58.518Z,2.40
2019-04-10T13:20:26.930Z,2.40
2019-04-10T13:22:56.262Z,2.77
2019-04-10T13:25:25.962Z,2.23
2019-04-10T13:27:54.915Z,2.20
2019-04-10T13:30:23.518Z,2.00
2019-04-10T13:32:51.946Z,2.30
2019-04-10T13:35:20.219Z,2.73
2019-04-10T13:37:48.561Z,2.13
2019-04-10T13:40:16.819Z,2.30
2019-04-10T13:42:45.374Z,2.40
2019-04-10T13:45:15.179Z,2.30
2019-04-10T13:47:43.490Z,2.20
2019-04-10T13:50:16.854Z,1.93
2019-04-10T13:52:49.663Z,2.13
2019-04-10T13:55:17.289Z,2.07
2019-04-10T13:57:46.552Z,1.63
2019-04-10T14:00:17.545Z,2.23
2019-04-10T14:02:45.954Z,2.40
2019-04-10T14:05:16.076Z,1.90
2019-04-10T14:07:44.354Z,1.80
2019-04-10T14:10:14.505Z,1.90
2019-04-10T14:12:43.015Z,2.10
2019-04-10T14:15:11.374Z,2.20
2019-04-10T14:17:39.919Z,2.23
2019-04-10T14:20:08.182Z,2.70
2019-04-10T14:22:38.080Z,1.90
2019-04-10T14:25:08.003Z,2.00
2019-04-10T14:27:36.335Z,2.10
2019-04-10T14:30:15.171Z,1.80
2019-04-10T14:32:43.607Z,1.73
2019-04-10T14:35:11.939Z,2.03
2019-04-10T14:37:41.207Z,1.67
2019-04-10T14:40:11.699Z,1.90
2019-04-10T14:42:40.352Z,2.13
2019-04-10T14:45:09.011Z,2.30
2019-04-10T14:47:39.392Z,2.27
2019-04-10T14:50:10.571Z,2.10
2019-04-10T14:52:39.074Z,2.20
2019-04-10T14:55:08.998Z,1.90
2019-04-10T14:57:37.276Z,1.80
2019-04-10T15:00:11.317Z,2.33
2019-04-10T15:02:39.768Z,1.90
2019-04-10T15:05:08.590Z,2.07
2019-04-10T15:07:37.312Z,1.63
2019-04-10T15:10:05.928Z,2.33
2019-04-10T15:12:34.387Z,2.30
2019-04-10T15:15:03.859Z,2.20
2019-04-10T15:17:32.885Z,2.50
2019-04-10T15:20:01.307Z,2.33
2019-04-10T15:22:29.655Z,2.30
2019-04-10T15:24:58.093Z,2.20
2019-04-10T15:27:29.254Z,1.90
2019-04-10T15:29:57.757Z,2.20
2019-04-10T15:32:26.243Z,1.97
2019-04-10T15:34:55.656Z,2.43
2019-04-10T15:37:24.956Z,1.83
2019-04-10T15:39:53.939Z,1.87
2019-04-10T15:42:23.792Z,2.20
2019-04-10T15:44:52.438Z,2.13
2019-04-10T15:47:22.943Z,2.00
2019-04-10T15:49:51.661Z,2.00
2019-04-10T15:52:20.098Z,2.20
2019-04-10T15:54:48.357Z,2.33
2019-04-10T15:57:16.614Z,2.30
2019-04-10T15:59:44.905Z,2.13
2019-04-10T16:02:15.383Z,2.00
2019-04-10T16:04:46.841Z,1.97
2019-04-10T16:07:16.097Z,1.80
2019-04-10T16:09:49.947Z,1.67
2019-04-10T16:12:16.593Z,1.87
2019-04-10T16:14:45.082Z,1.87
2019-04-10T16:17:31.361Z,2.40
2019-04-10T16:20:18.180Z,1.90
2019-04-10T16:22:49.054Z,2.10
2019-04-10T16:25:25.582Z,1.93
2019-04-10T16:27:55.602Z,2.07
2019-04-10T16:30:26.227Z,1.80
2019-04-10T16:32:54.598Z,2.10
2019-04-10T16:35:23.154Z,2.03
2019-04-10T16:37:51.739Z,1.80
2019-04-10T16:40:22.594Z,1.83
2019-04-10T16:42:51.302Z,2.27
2019-04-10T16:45:19.614Z,2.30
2019-04-10T16:47:49.118Z,2.40
2019-04-10T16:50:38.271Z,2.43
2019-04-10T16:53:09.637Z,2.50
2019-04-10T16:55:41.016Z,2.77
2019-04-10T16:58:09.644Z,2.50
2019-04-10T17:00:38.032Z,2.80
2019-04-10T17:03:06.323Z,2.67
2019-04-10T17:05:35.209Z,2.83
2019-04-10T17:08:03.744Z,2.63
2019-04-10T17:10:32.426Z,2.63
2019-04-10T17:13:00.854Z,2.20
2019-04-10T17:15:30.774Z,2.70
2019-04-10T17:17:59.183Z,2.47
2019-04-10T17:20:28.771Z,2.47
2019-04-10T17:22:58.271Z,2.93
2019-04-10T17:25:26.896Z,2.47
2019-04-10T17:27:56.340Z,2.87
2019-04-10T17:30:25.484Z,2.67
2019-04-10T17:32:54.289Z,2.47
2019-04-10T17:35:23.348Z,2.43
2019-04-10T17:37:51.945Z,2.70
2019-04-10T17:40:31.186Z,2.63
2019-04-10T17:42:50.513Z,2.40
2019-04-10T17:45:18.780Z,2.30
2019-04-10T17:47:47.207Z,2.40
2019-04-10T17:50:16.306Z,2.07
2019-04-10T17:52:47.181Z,2.17
2019-04-10T17:55:15.816Z,2.40
2019-04-10T17:57:45.919Z,2.33
2019-04-10T18:00:27.143Z,1.83
2019-04-10T18:02:55.575Z,2.13
2019-04-10T18:05:23.859Z,2.00
2019-04-10T18:07:52.420Z,2.10
2019-04-10T18:10:20.866Z,2.30
2019-04-10T18:12:49.132Z,1.90
2019-04-10T18:15:18.428Z,2.33
2019-04-10T18:17:47.692Z,2.30
2019-04-10T18:20:28.792Z,2.45
2019-04-10T18:22:57.130Z,1.90
2019-04-10T18:25:25.722Z,2.00
2019-04-10T18:27:54.615Z,2.17
2019-04-10T18:30:23.770Z,2.00
2019-04-10T18:32:52.411Z,1.60
2019-04-10T18:35:20.765Z,1.80
2019-04-10T18:37:50.306Z,1.83
2019-04-10T18:40:19.087Z,1.67
2019-04-10T18:42:47.510Z,1.70
2019-04-10T18:45:15.761Z,1.30
2019-04-10T18:47:44.132Z,1.57
2019-04-10T18:50:12.469Z,1.63
2019-04-10T18:52:40.715Z,1.60
2019-04-10T18:55:09.054Z,1.63
2019-04-10T18:57:37.329Z,1.83
2019-04-10T19:00:21.864Z,1.83
2019-04-10T19:02:55.041Z,1.70
2019-04-10T19:05:40.272Z,1.80
2019-04-10T19:08:11.186Z,1.40
2019-04-10T19:10:38.995Z,1.80
2019-04-10T19:13:09.585Z,1.80
2019-04-10T19:15:38.725Z,2.00
2019-04-10T19:18:08.158Z,1.93
2019-04-10T19:20:36.406Z,1.90
2019-04-10T19:23:04.690Z,1.90
2019-04-10T19:25:33.015Z,1.90
2019-04-10T19:28:01.258Z,1.83
2019-04-10T19:30:35.227Z,1.77
2019-04-10T19:33:03.953Z,1.83
2019-04-10T19:35:32.205Z,1.87
2019-04-10T19:38:00.998Z,2.40
2019-04-10T19:40:29.965Z,2.17
2019-04-10T19:42:58.353Z,2.27
2019-04-10T19:45:27.965Z,2.40
2019-04-10T19:47:57.033Z,2.10
2019-04-10T19:50:27.577Z,2.17
2019-04-10T19:52:57.009Z,2.50
2019-04-10T19:55:25.456Z,2.60
2019-04-10T19:57:53.702Z,2.63
2019-04-10T20:00:24.230Z,2.37
2019-04-10T20:02:55.160Z,2.70
2019-04-10T20:05:23.374Z,2.57
2019-04-10T20:07:51.980Z,2.70
2019-04-10T20:10:21.263Z,2.70
2019-04-10T20:12:50.848Z,2.70
2019-04-10T20:15:20.428Z,2.60
2019-04-10T20:17:48.991Z,2.90
2019-04-10T20:20:17.352Z,3.20
2019-04-10T20:22:45.937Z,2.27
2019-04-10T20:25:14.424Z,3.03
2019-04-10T20:27:42.719Z,2.83
2019-04-10T20:30:11.960Z,3.50
2019-04-10T20:32:40.350Z,3.07
2019-04-10T20:35:09.821Z,2.77
2019-04-10T20:37:38.712Z,3.00
2019-04-10T20:40:07.065Z,3.10
2019-04-10T20:42:35.309Z,3.07
2019-04-10T20:45:05.704Z,3.17
2019-04-10T20:47:35.065Z,2.77
2019-04-10T20:50:03.791Z,2.93
2019-04-10T20:52:32.517Z,3.30
2019-04-10T20:55:01.506Z,3.20
2019-04-10T20:57:30.107Z,3.03
2019-04-10T20:59:59.513Z,3.30
2019-04-10T21:02:28.531Z,3.10
2019-04-10T21:05:04.960Z,3.30
2019-04-10T21:07:27.663Z,3.30
2019-04-10T21:09:56.600Z,3.40
2019-04-10T21:12:25.851Z,3.80
2019-04-10T21:14:54.664Z,3.47
2019-04-10T21:17:23.451Z,3.43
2019-04-10T21:19:51.746Z,3.93
2019-04-10T21:22:20.381Z,3.60
2019-04-10T21:24:49.910Z,3.37
2019-04-10T21:27:18.604Z,3.73
2019-04-10T21:30:07.280Z,3.67
2019-04-10T21:32:56.848Z,3.50
2019-04-10T21:35:30.073Z,4.50
2019-04-10T21:37:59.130Z,3.47
2019-04-10T21:40:27.734Z,3.70
2019-04-10T21:42:56.140Z,3.50
2019-04-10T21:45:24.520Z,3.40
2019-04-10T21:47:52.770Z,4.10
2019-04-10T21:50:22.662Z,4.20
2019-04-10T21:52:51.832Z,3.80
2019-04-10T21:55:20.954Z,4.40
2019-04-10T21:57:51.029Z,3.90
2019-04-10T22:00:21.041Z,4.30
2019-04-10T22:02:49.359Z,4.00
2019-04-10T22:05:17.698Z,3.97
2019-04-10T22:07:48.247Z,3.67
2019-04-10T22:10:30.394Z,3.63
2019-04-10T22:12:59.490Z,3.93
2019-04-10T22:15:39.317Z,4.33
2019-04-10T22:18:07.843Z,4.00
2019-04-10T22:20:36.160Z,4.03
2019-04-10T22:23:04.488Z,4.33
2019-04-10T22:25:32.734Z,3.83
2019-04-10T22:28:01.010Z,3.93
2019-04-10T22:30:29.563Z,3.97
2019-04-10T22:32:57.925Z,4.07
2019-04-10T22:35:26.170Z,4.00
2019-04-10T22:37:54.528Z,4.40
2019-04-10T22:40:23.599Z,4.00
2019-04-10T22:42:53.262Z,4.47
2019-04-10T22:45:30.879Z,5.13
2019-04-10T22:48:00.744Z,4.50
2019-04-10T22:50:29.369Z,4.10
2019-04-10T22:52:57.626Z,4.30
2019-04-10T22:55:26.094Z,4.13
2019-04-10T22:57:54.864Z,4.30
2019-04-10T23:00:28.111Z,4.13
2019-04-10T23:02:57.298Z,4.10
2019-04-10T23:05:26.768Z,3.93
2019-04-10T23:07:55.562Z,4.20
2019-04-10T23:10:24.765Z,4.77
2019-04-10T23:13:01.673Z,4.33
2019-04-10T23:15:25.603Z,4.20
2019-04-10T23:17:53.928Z,4.20
2019-04-10T23:20:22.209Z,4.17
2019-04-10T23:22:50.716Z,4.50
2019-04-10T23:25:20.525Z,4.10
2019-04-10T23:27:51.934Z,4.60
2019-04-10T23:30:19.937Z,4.47
2019-04-10T23:32:48.706Z,3.80
2019-04-10T23:35:17.154Z,4.53
2019-04-10T23:37:46.902Z,4.17
2019-04-10T23:40:15.405Z,4.87
2019-04-10T23:42:44.191Z,4.10
2019-04-10T23:45:13.535Z,4.27
2019-04-10T23:47:42.364Z,4.50
2019-04-10T23:50:10.710Z,4.37
2019-04-10T23:52:40.074Z,4.50
2019-04-10T23:55:08.488Z,4.43
2019-04-10T23:57:37.676Z,4.50
